No2 Toyomaru — JD2874 — position and weather

sailwx.info

Track history (hours):
 
Tides and Currents Weather Stations Pressure Air Temp Water Temp Dewpoint Dewpoint Depression Visibility Wind Speed Wind Dir Waves Ship Positions

No2 Toyomaru

Last reported at 2017-Dec-11 01:30 UTC. Time now 2017-Dec-11 01:58 UTC.
Position N 34°20' E 132°26'.

Length 124 m; draft 6.5 m.

Type: Cargo ship. MMSI: 431000859.

Date/timePositionNaut miles runAvg speedWind from/ knotsBaromVisibWave heightAir tempDewpointWater temp
2017-Dec-11 01:30N 34°20' E 132°26'4 8.8
2017-Dec-11 01:01N 34°21' E 132°31'0 0.0
2017-Dec-11 00:29N 34°21' E 132°31'0 0.0
2017-Dec-10 23:59N 34°21' E 132°31'0 0.0
2017-Dec-10 23:29N 34°21' E 132°31'0 0.0
2017-Dec-10 22:59N 34°21' E 132°31'0 0.0
2017-Dec-10 22:29N 34°21' E 132°31'0 0.0
2017-Dec-10 21:56N 34°21' E 132°31'0 0.0
2017-Dec-10 21:29N 34°21' E 132°31'0 0.0
2017-Dec-10 20:59N 34°21' E 132°31'0 0.0
2017-Dec-10 20:29N 34°21' E 132°31'0 0.0
2017-Dec-10 19:59N 34°21' E 132°31'0 0.0
2017-Dec-10 19:29N 34°21' E 132°31'0 0.0
2017-Dec-10 18:56N 34°21' E 132°31'0 0.0
2017-Dec-10 18:29N 34°21' E 132°31'0 0.0
2017-Dec-10 17:59N 34°21' E 132°31'0 0.0
2017-Dec-10 17:29N 34°21' E 132°31'0 0.0
2017-Dec-10 16:59N 34°21' E 132°31'0 0.3
2017-Dec-10 16:30N 34°21' E 132°31'611.1
2017-Dec-10 16:00N 34°19' E 132°25'917.2
2017-Dec-10 15:31N 34°10' E 132°21'916.9
2017-Dec-10 14:58N 34°04' E 132°29'614.0
2017-Dec-10 14:31N 34°04' E 132°37'917.2
2017-Dec-10 14:00N 34°08' E 132°46'917.3
2017-Dec-10 13:28N 34°10' E 132°57'50 9.9
2017-Dec-10 08:24N 34°25' E 133°55'3 1.9
2017-Dec-10 06:55N 34°26' E 133°58'914.9
2017-Dec-10 06:21N 34°26' E 134°09'617.9
2017-Dec-10 06:00N 34°24' E 134°16'918.1
2017-Dec-10 05:30N 34°20' E 134°26'918.1
2017-Dec-10 05:00N 34°16' E 134°36'1017.8
2017-Dec-10 04:26N 34°09' E 134°44'818.1
2017-Dec-10 04:00N 34°03' E 134°50'918.1
2017-Dec-10 03:30N 33°56' E 134°57'14015.6
2017-Dec-09 18:31N 34°16' E 137°44'617.8
2017-Dec-09 18:11N 34°18' E 137°51'317.3
2017-Dec-09 18:00N 34°19' E 137°55'917.1
2017-Dec-09 17:30N 34°22' E 138°04'816.3
2017-Dec-09 17:00N 34°25' E 138°14'815.6
2017-Dec-09 16:29N 34°27' E 138°23'815.2
2017-Dec-09 15:57N 34°28' E 138°33'715.1
2017-Dec-09 15:28N 34°29' E 138°41'814.7
2017-Dec-09 14:54N 34°31' E 138°51'614.1
2017-Dec-09 14:30N 34°32' E 138°58'915.3
2017-Dec-09 13:57N 34°38' E 139°06'915.4
2017-Dec-09 13:22N 34°44' E 139°14'616.0
2017-Dec-09 13:00N 34°48' E 139°19'815.9
2017-Dec-09 12:29N 34°54' E 139°26'817.1
2017-Dec-09 12:00N 34°59' E 139°33'816.9
2017-Dec-09 11:30N 35°05' E 139°41'816.7
2017-Dec-09 11:00N 35°12' E 139°46'612.2
2017-Dec-09 10:31N 35°18' E 139°44'714.0
2017-Dec-09 10:00N 35°25' E 139°44'917.5
2017-Dec-09 09:30N 35°30' E 139°53'917.2
2017-Dec-09 09:01N 35°35' E 140°02'4 7.3
2017-Dec-09 08:31N 35°36' E 140°06'0 0.0
2017-Dec-09 08:01N 35°36' E 140°06'0 0.0
2017-Dec-09 07:30N 35°36' E 140°06'0 0.0
2017-Dec-09 07:00N 35°36' E 140°06'0 0.0
2017-Dec-09 06:30N 35°36' E 140°06'1 1.2
2017-Dec-09 06:00N 35°35' E 140°06'1 2.6
2017-Dec-09 05:30N 35°37' E 140°05'0 0.0
2017-Dec-09 05:00N 35°37' E 140°05'0 0.0
2017-Dec-09 04:30N 35°37' E 140°05'0 0.0
2017-Dec-09 04:00N 35°37' E 140°05'0 0.0
2017-Dec-09 03:30N 35°37' E 140°05'0 0.0
2017-Dec-09 03:00N 35°37' E 140°05'0 0.0
2017-Dec-09 02:30N 35°37' E 140°05'0 0.0
2017-Dec-09 02:00N 35°37' E 140°05'0 0.0
2017-Dec-09 01:30N 35°37' E 140°05'0 0.0
2017-Dec-09 01:00N 35°37' E 140°05'0 0.0
2017-Dec-09 00:30N 35°37' E 140°05'0 0.0
2017-Dec-09 00:00N 35°37' E 140°05'0 0.0
2017-Dec-08 23:30N 35°37' E 140°05'1 2.2
2017-Dec-08 23:01N 35°36' E 140°05'1 1.9
2017-Dec-08 22:30N 35°36' E 140°06'0 0.0
2017-Dec-08 22:00N 35°36' E 140°06'0 0.0
2017-Dec-08 21:30N 35°36' E 140°06'0 0.0
2017-Dec-08 21:00N 35°36' E 140°06'0 0.2
2017-Dec-08 20:30N 35°36' E 140°06'5 9.2
2017-Dec-08 20:01N 35°34' E 140°01'816.2
2017-Dec-08 19:30N 35°29' E 139°53'815.4
2017-Dec-08 19:00N 35°24' E 139°46'612.2
2017-Dec-08 18:30N 35°18' E 139°45'612.4
2017-Dec-08 18:01N 35°12' E 139°47'816.3
2017-Dec-08 17:30N 35°04' E 139°44'816.1
2017-Dec-08 17:00N 34°57' E 139°39'713.6
2017-Dec-08 16:30N 34°56' E 139°31'918.2
2017-Dec-08 16:00N 34°51' E 139°22'918.3
2017-Dec-08 15:30N 34°45' E 139°14'918.2
2017-Dec-08 15:00N 34°39' E 139°05'918.1
2017-Dec-08 14:30N 34°33' E 138°57'917.0
2017-Dec-08 14:00N 34°32' E 138°47'917.9
2017-Dec-08 13:29N 34°32' E 138°35'918.6
2017-Dec-08 12:58N 34°32' E 138°24'917.9
2017-Dec-08 12:28N 34°32' E 138°13'918.1
2017-Dec-08 11:59N 34°32' E 138°02'917.6
2017-Dec-08 11:29N 34°32' E 137°52'2317.8
2017-Dec-08 10:12N 34°32' E 137°24'318.0
2017-Dec-08 10:00N 34°32' E 137°20'917.5
2017-Dec-08 09:30N 34°32' E 137°09'714.3
2017-Dec-08 09:00N 34°34' E 137°00'510.7
2017-Dec-08 08:30N 34°39' E 136°58'817.0
2017-Dec-08 08:00N 34°47' E 136°58'713.1
2017-Dec-08 07:30N 34°53' E 136°58'1 1.2
2017-Dec-08 06:59N 34°54' E 136°59'0 0.0
2017-Dec-08 06:29N 34°54' E 136°59'0 0.0
2017-Dec-08 05:56N 34°54' E 136°59'0 0.0
2017-Dec-08 05:29N 34°54' E 136°59'0 0.0
2017-Dec-08 04:59N 34°54' E 136°59'0 0.0
2017-Dec-08 04:29N 34°54' E 136°59'2 5.2
2017-Dec-08 04:00N 34°52' E 136°57'714.3
2017-Dec-08 03:30N 34°45' E 136°59'815.6
2017-Dec-08 02:58N 34°36' E 136°58'3014.7
2017-Dec-08 00:53N 34°07' E 136°48'816.4
2017-Dec-08 00:25N 34°02' E 136°41'7115.7
2017-Dec-07 19:53N 33°29' E 135°24'816.4
2017-Dec-07 19:24N 33°34' E 135°17'1618.3
2017-Dec-07 18:32N 33°47' E 135°05'117.9
2017-Dec-07 18:30N 33°47' E 135°05'918.2
2017-Dec-07 18:00N 33°54' E 134°58'918.5
2017-Dec-07 17:30N 34°01' E 134°51'918.6
2017-Dec-07 17:00N 34°09' E 134°44'919.0
2017-Dec-07 16:31N 34°16' E 134°37'918.0
2017-Dec-07 16:01N 34°19' E 134°27'917.7
2017-Dec-07 15:31N 34°23' E 134°17'917.2
2017-Dec-07 15:00N 34°26' E 134°07'6914.7
2017-Dec-07 10:17N 34°08' E 132°46'517.3
2017-Dec-07 10:00N 34°05' E 132°41'917.3
2017-Dec-07 09:30N 34°02' E 132°32'917.1
2017-Dec-07 09:00N 34°07' E 132°24'817.2
2017-Dec-07 08:31N 34°16' E 132°22'714.7
2017-Dec-07 08:01N 34°21' E 132°28'0 0.9
2017-Dec-07 07:28N 34°21' E 132°29'0 0.0
2017-Dec-07 06:58N 34°21' E 132°29'0 0.0
2017-Dec-07 06:28N 34°21' E 132°29'0 0.0
2017-Dec-07 05:55N 34°21' E 132°29'0 0.0
2017-Dec-07 05:28N 34°21' E 132°29'0 0.0
2017-Dec-07 04:58N 34°21' E 132°29'0 0.0
2017-Dec-07 04:28N 34°21' E 132°29'0 0.0
2017-Dec-07 03:58N 34°21' E 132°29'0 0.0
2017-Dec-07 03:25N 34°21' E 132°29'2 3.8
2017-Dec-07 03:00N 34°20' E 132°28'510.4
2017-Dec-07 02:30N 34°21' E 132°22'0 0.0
2017-Dec-07 01:57N 34°21' E 132°22'2 3.6
2017-Dec-07 01:31N 34°19' E 132°22'611.9
2017-Dec-07 01:00N 34°21' E 132°29'1 2.3
2017-Dec-07 00:29N 34°21' E 132°31'0 0.0
2017-Dec-06 23:59N 34°21' E 132°31'0 0.0
2017-Dec-06 23:29N 34°21' E 132°31'0 0.0
2017-Dec-06 22:59N 34°21' E 132°31'0 0.0
2017-Dec-06 22:26N 34°21' E 132°31'0 0.0
2017-Dec-06 21:59N 34°21' E 132°31'0 0.0
2017-Dec-06 21:29N 34°21' E 132°31'0 0.0
2017-Dec-06 20:59N 34°21' E 132°31'  
2017-Dec-04 10:30N 35°36' E 140°06'612.9
2017-Dec-04 10:00N 35°33' E 139°59'917.3
2017-Dec-04 09:30N 35°28' E 139°50'714.3
2017-Dec-04 09:00N 35°22' E 139°45'611.6
2017-Dec-04 08:30N 35°16' E 139°46'713.7
2017-Dec-04 08:00N 35°09' E 139°46'917.9
2017-Dec-04 07:30N 35°02' E 139°39'1019.3
2017-Dec-04 07:00N 34°56' E 139°30'1119.9
2017-Dec-04 06:29N 34°49' E 139°20'919.1
2017-Dec-04 06:00N 34°43' E 139°12'918.5
2017-Dec-04 05:30N 34°37' E 139°03'918.1
2017-Dec-04 05:00N 34°32' E 138°54'918.2
2017-Dec-04 04:30N 34°30' E 138°43'1018.2
2017-Dec-04 03:58N 34°28' E 138°32'817.9
2017-Dec-04 03:30N 34°26' E 138°22'917.7
2017-Dec-04 03:00N 34°24' E 138°12'1017.6
2017-Dec-04 02:26N 34°20' E 138°00'13916.7
2017-Dec-03 18:08N 33°30' E 135°24'517.6
2017-Dec-03 17:52N 33°32' E 135°20'917.8
2017-Dec-03 17:21N 33°39' E 135°12'718.2
2017-Dec-03 16:58N 33°44' E 135°07'818.0
2017-Dec-03 16:30N 33°51' E 135°00'918.3
2017-Dec-03 16:00N 33°57' E 134°53'919.0
2017-Dec-03 15:31N 34°05' E 134°46'918.9
2017-Dec-03 15:01N 34°13' E 134°40'918.3
2017-Dec-03 14:30N 34°18' E 134°31'918.3
2017-Dec-03 14:00N 34°21' E 134°20'1018.3
2017-Dec-03 13:28N 34°25' E 134°09'6215.1
2017-Dec-03 09:21N 34°10' E 132°56'917.9
2017-Dec-03 08:52N 34°08' E 132°46'617.9
2017-Dec-03 08:30N 34°05' E 132°39'815.0
2017-Dec-03 07:59N 34°03' E 132°30'817.0
2017-Dec-03 07:30N 34°09' E 132°23'816.1
2017-Dec-03 07:01N 34°17' E 132°23'612.7
2017-Dec-03 06:30N 34°21' E 132°29'0 0.0
2017-Dec-03 05:58N 34°21' E 132°29'0 0.0
2017-Dec-03 05:25N 34°21' E 132°29'0 0.0
2017-Dec-03 04:58N 34°21' E 132°29'0 0.0
2017-Dec-03 04:28N 34°21' E 132°29'0 0.0
2017-Dec-03 03:58N 34°21' E 132°29'0 0.0
2017-Dec-03 03:28N 34°21' E 132°29'1 1.8
2017-Dec-03 02:55N 34°20' E 132°28'511.9
2017-Dec-03 02:30N 34°20' E 132°22'1 1.6
2017-Dec-03 02:00N 34°21' E 132°22'1 2.3
2017-Dec-03 01:31N 34°20' E 132°22'612.1
2017-Dec-03 01:00N 34°21' E 132°29'1 2.3
2017-Dec-03 00:30N 34°21' E 132°31'0 0.0
2017-Dec-02 23:54N 34°21' E 132°31'0 0.0
2017-Dec-02 23:30N 34°21' E 132°31'0 0.0
2017-Dec-02 23:00N 34°21' E 132°31'0 0.0
2017-Dec-02 22:30N 34°21' E 132°31'0 0.0
2017-Dec-02 21:57N 34°21' E 132°31'0 0.0
2017-Dec-02 21:30N 34°21' E 132°31'0 0.0
2017-Dec-02 21:00N 34°21' E 132°31'0 0.0
2017-Dec-02 20:30N 34°21' E 132°31'0 0.0
2017-Dec-02 20:00N 34°21' E 132°31'0 0.0
2017-Dec-02 19:30N 34°21' E 132°31'0 0.0
2017-Dec-02 19:00N 34°21' E 132°31'0 0.0
2017-Dec-02 18:30N 34°21' E 132°31'0 0.0
2017-Dec-02 18:00N 34°21' E 132°31'0 0.0
2017-Dec-02 17:30N 34°21' E 132°31'2 4.6
2017-Dec-02 17:00N 34°20' E 132°28'715.1
2017-Dec-02 16:30N 34°15' E 132°22'816.8
2017-Dec-02 16:00N 34°07' E 132°24'815.9
2017-Dec-02 15:30N 34°02' E 132°31'7310.8
2017-Dec-02 08:46N 34°25' E 133°54'3 2.0
2017-Dec-02 07:16N 34°26' E 133°57'515.0
2017-Dec-02 06:56N 34°27' E 134°04'817.6
2017-Dec-02 06:28N 34°25' E 134°13'817.7
2017-Dec-02 06:00N 34°21' E 134°22'917.6
2017-Dec-02 05:31N 34°18' E 134°32'816.4
2017-Dec-02 05:00N 34°13' E 134°40'916.7
2017-Dec-02 04:27N 34°06' E 134°47'1117.2
2017-Dec-02 03:51N 33°58' E 134°55'14114.7
2017-Dec-01 18:16N 34°15' E 137°44'716.8
2017-Dec-01 17:49N 34°18' E 137°52'816.9
2017-Dec-01 17:22N 34°21' E 138°01'716.3
2017-Dec-01 16:58N 34°24' E 138°08'815.8
2017-Dec-01 16:29N 34°26' E 138°17'715.2
2017-Dec-01 16:00N 34°27' E 138°26'813.8
2017-Dec-01 15:26N 34°29' E 138°35'1513.5
2017-Dec-01 14:20N 34°31' E 138°53'514.0
2017-Dec-01 14:00N 34°33' E 138°58'815.5
2017-Dec-01 13:29N 34°38' E 139°05'1016.0
2017-Dec-01 12:52N 34°45' E 139°14'1416.1
2017-Dec-01 12:00N 34°54' E 139°27'816.0
2017-Dec-01 11:30N 34°59' E 139°34'917.6
2017-Dec-01 11:00N 35°06' E 139°41'917.1
2017-Dec-01 10:30N 35°13' E 139°46'612.6
2017-Dec-01 10:00N 35°19' E 139°43'714.1
2017-Dec-01 09:31N 35°26' E 139°45'918.3
2017-Dec-01 09:01N 35°31' E 139°55'917.1
2017-Dec-01 08:30N 35°35' E 140°04'2 4.2
2017-Dec-01 08:00N 35°36' E 140°06'0 0.0
2017-Dec-01 07:30N 35°36' E 140°06'0 0.0
2017-Dec-01 07:00N 35°36' E 140°06'0 0.0
2017-Dec-01 06:30N 35°36' E 140°06'0 0.0
2017-Dec-01 06:00N 35°36' E 140°06'0 0.0
2017-Dec-01 05:30N 35°36' E 140°06'1 1.7
2017-Dec-01 05:00N 35°36' E 140°05'1 0.9
2017-Dec-01 04:26N 35°37' E 140°05'0 0.0
2017-Dec-01 03:59N 35°37' E 140°05'0 0.0
2017-Dec-01 03:29N 35°37' E 140°05'0 0.0
2017-Dec-01 02:59N 35°37' E 140°05'0 0.0
2017-Dec-01 02:29N 35°37' E 140°05'0 0.0
2017-Dec-01 01:59N 35°37' E 140°05'  
Track history (hours):
 
Tides and Currents Weather Stations Pressure Air Temp Water Temp Dewpoint Dewpoint Depression Visibility Wind Speed Wind Dir Waves Ship Positions

No2 Toyomaru

Last reported at 2017-Dec-11 01:30 UTC. Time now 2017-Dec-11 01:58 UTC.
Position N 34°20' E 132°26'.

Length 124 m; draft 6.5 m.

Type: Cargo ship. MMSI: 431000859.

Date/timePositionNaut miles runAvg speedWind from/ knotsBaromVisibWave heightAir tempDewpointWater temp
2017-Dec-11 01:30N 34°20' E 132°26'4 8.8
2017-Dec-11 01:01N 34°21' E 132°31'0 0.0
2017-Dec-11 00:29N 34°21' E 132°31'0 0.0
2017-Dec-10 23:59N 34°21' E 132°31'0 0.0
2017-Dec-10 23:29N 34°21' E 132°31'0 0.0
2017-Dec-10 22:59N 34°21' E 132°31'0 0.0
2017-Dec-10 22:29N 34°21' E 132°31'0 0.0
2017-Dec-10 21:56N 34°21' E 132°31'0 0.0
2017-Dec-10 21:29N 34°21' E 132°31'0 0.0
2017-Dec-10 20:59N 34°21' E 132°31'0 0.0
2017-Dec-10 20:29N 34°21' E 132°31'0 0.0
2017-Dec-10 19:59N 34°21' E 132°31'0 0.0
2017-Dec-10 19:29N 34°21' E 132°31'0 0.0
2017-Dec-10 18:56N 34°21' E 132°31'0 0.0
2017-Dec-10 18:29N 34°21' E 132°31'0 0.0
2017-Dec-10 17:59N 34°21' E 132°31'0 0.0
2017-Dec-10 17:29N 34°21' E 132°31'0 0.0
2017-Dec-10 16:59N 34°21' E 132°31'0 0.3
2017-Dec-10 16:30N 34°21' E 132°31'611.1
2017-Dec-10 16:00N 34°19' E 132°25'917.2
2017-Dec-10 15:31N 34°10' E 132°21'916.9
2017-Dec-10 14:58N 34°04' E 132°29'614.0
2017-Dec-10 14:31N 34°04' E 132°37'917.2
2017-Dec-10 14:00N 34°08' E 132°46'917.3
2017-Dec-10 13:28N 34°10' E 132°57'50 9.9
2017-Dec-10 08:24N 34°25' E 133°55'3 1.9
2017-Dec-10 06:55N 34°26' E 133°58'914.9
2017-Dec-10 06:21N 34°26' E 134°09'617.9
2017-Dec-10 06:00N 34°24' E 134°16'918.1
2017-Dec-10 05:30N 34°20' E 134°26'918.1
2017-Dec-10 05:00N 34°16' E 134°36'1017.8
2017-Dec-10 04:26N 34°09' E 134°44'818.1
2017-Dec-10 04:00N 34°03' E 134°50'918.1
2017-Dec-10 03:30N 33°56' E 134°57'14015.6
2017-Dec-09 18:31N 34°16' E 137°44'617.8
2017-Dec-09 18:11N 34°18' E 137°51'317.3
2017-Dec-09 18:00N 34°19' E 137°55'917.1
2017-Dec-09 17:30N 34°22' E 138°04'816.3
2017-Dec-09 17:00N 34°25' E 138°14'815.6
2017-Dec-09 16:29N 34°27' E 138°23'815.2
2017-Dec-09 15:57N 34°28' E 138°33'715.1
2017-Dec-09 15:28N 34°29' E 138°41'814.7
2017-Dec-09 14:54N 34°31' E 138°51'614.1
2017-Dec-09 14:30N 34°32' E 138°58'915.3
2017-Dec-09 13:57N 34°38' E 139°06'915.4
2017-Dec-09 13:22N 34°44' E 139°14'616.0
2017-Dec-09 13:00N 34°48' E 139°19'815.9
2017-Dec-09 12:29N 34°54' E 139°26'817.1
2017-Dec-09 12:00N 34°59' E 139°33'816.9
2017-Dec-09 11:30N 35°05' E 139°41'816.7
2017-Dec-09 11:00N 35°12' E 139°46'612.2
2017-Dec-09 10:31N 35°18' E 139°44'714.0
2017-Dec-09 10:00N 35°25' E 139°44'917.5
2017-Dec-09 09:30N 35°30' E 139°53'917.2
2017-Dec-09 09:01N 35°35' E 140°02'4 7.3
2017-Dec-09 08:31N 35°36' E 140°06'0 0.0
2017-Dec-09 08:01N 35°36' E 140°06'0 0.0
2017-Dec-09 07:30N 35°36' E 140°06'0 0.0
2017-Dec-09 07:00N 35°36' E 140°06'0 0.0
2017-Dec-09 06:30N 35°36' E 140°06'1 1.2
2017-Dec-09 06:00N 35°35' E 140°06'1 2.6
2017-Dec-09 05:30N 35°37' E 140°05'0 0.0
2017-Dec-09 05:00N 35°37' E 140°05'0 0.0
2017-Dec-09 04:30N 35°37' E 140°05'0 0.0
2017-Dec-09 04:00N 35°37' E 140°05'0 0.0
2017-Dec-09 03:30N 35°37' E 140°05'0 0.0
2017-Dec-09 03:00N 35°37' E 140°05'0 0.0
2017-Dec-09 02:30N 35°37' E 140°05'0 0.0
2017-Dec-09 02:00N 35°37' E 140°05'0 0.0
2017-Dec-09 01:30N 35°37' E 140°05'0 0.0
2017-Dec-09 01:00N 35°37' E 140°05'0 0.0
2017-Dec-09 00:30N 35°37' E 140°05'0 0.0
2017-Dec-09 00:00N 35°37' E 140°05'0 0.0
2017-Dec-08 23:30N 35°37' E 140°05'1 2.2
2017-Dec-08 23:01N 35°36' E 140°05'1 1.9
2017-Dec-08 22:30N 35°36' E 140°06'0 0.0
2017-Dec-08 22:00N 35°36' E 140°06'0 0.0
2017-Dec-08 21:30N 35°36' E 140°06'0 0.0
2017-Dec-08 21:00N 35°36' E 140°06'0 0.2
2017-Dec-08 20:30N 35°36' E 140°06'5 9.2
2017-Dec-08 20:01N 35°34' E 140°01'816.2
2017-Dec-08 19:30N 35°29' E 139°53'815.4
2017-Dec-08 19:00N 35°24' E 139°46'612.2
2017-Dec-08 18:30N 35°18' E 139°45'612.4
2017-Dec-08 18:01N 35°12' E 139°47'816.3
2017-Dec-08 17:30N 35°04' E 139°44'816.1
2017-Dec-08 17:00N 34°57' E 139°39'713.6
2017-Dec-08 16:30N 34°56' E 139°31'918.2
2017-Dec-08 16:00N 34°51' E 139°22'918.3
2017-Dec-08 15:30N 34°45' E 139°14'918.2
2017-Dec-08 15:00N 34°39' E 139°05'918.1
2017-Dec-08 14:30N 34°33' E 138°57'917.0
2017-Dec-08 14:00N 34°32' E 138°47'917.9
2017-Dec-08 13:29N 34°32' E 138°35'918.6
2017-Dec-08 12:58N 34°32' E 138°24'917.9
2017-Dec-08 12:28N 34°32' E 138°13'918.1
2017-Dec-08 11:59N 34°32' E 138°02'917.6
2017-Dec-08 11:29N 34°32' E 137°52'2317.8
2017-Dec-08 10:12N 34°32' E 137°24'318.0
2017-Dec-08 10:00N 34°32' E 137°20'917.5
2017-Dec-08 09:30N 34°32' E 137°09'714.3
2017-Dec-08 09:00N 34°34' E 137°00'510.7
2017-Dec-08 08:30N 34°39' E 136°58'817.0
2017-Dec-08 08:00N 34°47' E 136°58'713.1
2017-Dec-08 07:30N 34°53' E 136°58'1 1.2
2017-Dec-08 06:59N 34°54' E 136°59'0 0.0
2017-Dec-08 06:29N 34°54' E 136°59'0 0.0
2017-Dec-08 05:56N 34°54' E 136°59'0 0.0
2017-Dec-08 05:29N 34°54' E 136°59'0 0.0
2017-Dec-08 04:59N 34°54' E 136°59'0 0.0
2017-Dec-08 04:29N 34°54' E 136°59'2 5.2
2017-Dec-08 04:00N 34°52' E 136°57'714.3
2017-Dec-08 03:30N 34°45' E 136°59'815.6
2017-Dec-08 02:58N 34°36' E 136°58'3014.7
2017-Dec-08 00:53N 34°07' E 136°48'816.4
2017-Dec-08 00:25N 34°02' E 136°41'7115.7
2017-Dec-07 19:53N 33°29' E 135°24'816.4
2017-Dec-07 19:24N 33°34' E 135°17'1618.3
2017-Dec-07 18:32N 33°47' E 135°05'117.9
2017-Dec-07 18:30N 33°47' E 135°05'918.2
2017-Dec-07 18:00N 33°54' E 134°58'918.5
2017-Dec-07 17:30N 34°01' E 134°51'918.6
2017-Dec-07 17:00N 34°09' E 134°44'919.0
2017-Dec-07 16:31N 34°16' E 134°37'918.0
2017-Dec-07 16:01N 34°19' E 134°27'917.7
2017-Dec-07 15:31N 34°23' E 134°17'917.2
2017-Dec-07 15:00N 34°26' E 134°07'6914.7
2017-Dec-07 10:17N 34°08' E 132°46'517.3
2017-Dec-07 10:00N 34°05' E 132°41'917.3
2017-Dec-07 09:30N 34°02' E 132°32'917.1
2017-Dec-07 09:00N 34°07' E 132°24'817.2
2017-Dec-07 08:31N 34°16' E 132°22'714.7
2017-Dec-07 08:01N 34°21' E 132°28'0 0.9
2017-Dec-07 07:28N 34°21' E 132°29'0 0.0
2017-Dec-07 06:58N 34°21' E 132°29'0 0.0
2017-Dec-07 06:28N 34°21' E 132°29'0 0.0
2017-Dec-07 05:55N 34°21' E 132°29'0 0.0
2017-Dec-07 05:28N 34°21' E 132°29'0 0.0
2017-Dec-07 04:58N 34°21' E 132°29'0 0.0
2017-Dec-07 04:28N 34°21' E 132°29'0 0.0
2017-Dec-07 03:58N 34°21' E 132°29'0 0.0
2017-Dec-07 03:25N 34°21' E 132°29'2 3.8
2017-Dec-07 03:00N 34°20' E 132°28'510.4
2017-Dec-07 02:30N 34°21' E 132°22'0 0.0
2017-Dec-07 01:57N 34°21' E 132°22'2 3.6
2017-Dec-07 01:31N 34°19' E 132°22'611.9
2017-Dec-07 01:00N 34°21' E 132°29'1 2.3
2017-Dec-07 00:29N 34°21' E 132°31'0 0.0
2017-Dec-06 23:59N 34°21' E 132°31'0 0.0
2017-Dec-06 23:29N 34°21' E 132°31'0 0.0
2017-Dec-06 22:59N 34°21' E 132°31'0 0.0
2017-Dec-06 22:26N 34°21' E 132°31'0 0.0
2017-Dec-06 21:59N 34°21' E 132°31'0 0.0
2017-Dec-06 21:29N 34°21' E 132°31'0 0.0
2017-Dec-06 20:59N 34°21' E 132°31'  
2017-Dec-04 10:30N 35°36' E 140°06'612.9
2017-Dec-04 10:00N 35°33' E 139°59'917.3
2017-Dec-04 09:30N 35°28' E 139°50'714.3
2017-Dec-04 09:00N 35°22' E 139°45'611.6
2017-Dec-04 08:30N 35°16' E 139°46'713.7
2017-Dec-04 08:00N 35°09' E 139°46'917.9
2017-Dec-04 07:30N 35°02' E 139°39'1019.3
2017-Dec-04 07:00N 34°56' E 139°30'1119.9
2017-Dec-04 06:29N 34°49' E 139°20'919.1
2017-Dec-04 06:00N 34°43' E 139°12'918.5
2017-Dec-04 05:30N 34°37' E 139°03'918.1
2017-Dec-04 05:00N 34°32' E 138°54'918.2
2017-Dec-04 04:30N 34°30' E 138°43'1018.2
2017-Dec-04 03:58N 34°28' E 138°32'817.9
2017-Dec-04 03:30N 34°26' E 138°22'917.7
2017-Dec-04 03:00N 34°24' E 138°12'1017.6
2017-Dec-04 02:26N 34°20' E 138°00'13916.7
2017-Dec-03 18:08N 33°30' E 135°24'517.6
2017-Dec-03 17:52N 33°32' E 135°20'917.8
2017-Dec-03 17:21N 33°39' E 135°12'718.2
2017-Dec-03 16:58N 33°44' E 135°07'818.0
2017-Dec-03 16:30N 33°51' E 135°00'918.3
2017-Dec-03 16:00N 33°57' E 134°53'919.0
2017-Dec-03 15:31N 34°05' E 134°46'918.9
2017-Dec-03 15:01N 34°13' E 134°40'918.3
2017-Dec-03 14:30N 34°18' E 134°31'918.3
2017-Dec-03 14:00N 34°21' E 134°20'1018.3
2017-Dec-03 13:28N 34°25' E 134°09'6215.1
2017-Dec-03 09:21N 34°10' E 132°56'917.9
2017-Dec-03 08:52N 34°08' E 132°46'617.9
2017-Dec-03 08:30N 34°05' E 132°39'815.0
2017-Dec-03 07:59N 34°03' E 132°30'817.0
2017-Dec-03 07:30N 34°09' E 132°23'816.1
2017-Dec-03 07:01N 34°17' E 132°23'612.7
2017-Dec-03 06:30N 34°21' E 132°29'0 0.0
2017-Dec-03 05:58N 34°21' E 132°29'0 0.0
2017-Dec-03 05:25N 34°21' E 132°29'0 0.0
2017-Dec-03 04:58N 34°21' E 132°29'0 0.0
2017-Dec-03 04:28N 34°21' E 132°29'0 0.0
2017-Dec-03 03:58N 34°21' E 132°29'0 0.0
2017-Dec-03 03:28N 34°21' E 132°29'1 1.8
2017-Dec-03 02:55N 34°20' E 132°28'511.9
2017-Dec-03 02:30N 34°20' E 132°22'1 1.6
2017-Dec-03 02:00N 34°21' E 132°22'1 2.3
2017-Dec-03 01:31N 34°20' E 132°22'612.1
2017-Dec-03 01:00N 34°21' E 132°29'1 2.3
2017-Dec-03 00:30N 34°21' E 132°31'0 0.0
2017-Dec-02 23:54N 34°21' E 132°31'0 0.0
2017-Dec-02 23:30N 34°21' E 132°31'0 0.0
2017-Dec-02 23:00N 34°21' E 132°31'0 0.0
2017-Dec-02 22:30N 34°21' E 132°31'0 0.0
2017-Dec-02 21:57N 34°21' E 132°31'0 0.0
2017-Dec-02 21:30N 34°21' E 132°31'0 0.0
2017-Dec-02 21:00N 34°21' E 132°31'0 0.0
2017-Dec-02 20:30N 34°21' E 132°31'0 0.0
2017-Dec-02 20:00N 34°21' E 132°31'0 0.0
2017-Dec-02 19:30N 34°21' E 132°31'0 0.0
2017-Dec-02 19:00N 34°21' E 132°31'0 0.0
2017-Dec-02 18:30N 34°21' E 132°31'0 0.0
2017-Dec-02 18:00N 34°21' E 132°31'0 0.0
2017-Dec-02 17:30N 34°21' E 132°31'2 4.6
2017-Dec-02 17:00N 34°20' E 132°28'715.1
2017-Dec-02 16:30N 34°15' E 132°22'816.8
2017-Dec-02 16:00N 34°07' E 132°24'815.9
2017-Dec-02 15:30N 34°02' E 132°31'7310.8
2017-Dec-02 08:46N 34°25' E 133°54'3 2.0
2017-Dec-02 07:16N 34°26' E 133°57'515.0
2017-Dec-02 06:56N 34°27' E 134°04'817.6
2017-Dec-02 06:28N 34°25' E 134°13'817.7
2017-Dec-02 06:00N 34°21' E 134°22'917.6
2017-Dec-02 05:31N 34°18' E 134°32'816.4
2017-Dec-02 05:00N 34°13' E 134°40'916.7
2017-Dec-02 04:27N 34°06' E 134°47'1117.2
2017-Dec-02 03:51N 33°58' E 134°55'14114.7
2017-Dec-01 18:16N 34°15' E 137°44'716.8
2017-Dec-01 17:49N 34°18' E 137°52'816.9
2017-Dec-01 17:22N 34°21' E 138°01'716.3
2017-Dec-01 16:58N 34°24' E 138°08'815.8
2017-Dec-01 16:29N 34°26' E 138°17'715.2
2017-Dec-01 16:00N 34°27' E 138°26'813.8
2017-Dec-01 15:26N 34°29' E 138°35'1513.5
2017-Dec-01 14:20N 34°31' E 138°53'514.0
2017-Dec-01 14:00N 34°33' E 138°58'815.5
2017-Dec-01 13:29N 34°38' E 139°05'1016.0
2017-Dec-01 12:52N 34°45' E 139°14'1416.1
2017-Dec-01 12:00N 34°54' E 139°27'816.0
2017-Dec-01 11:30N 34°59' E 139°34'917.6
2017-Dec-01 11:00N 35°06' E 139°41'917.1
2017-Dec-01 10:30N 35°13' E 139°46'612.6
2017-Dec-01 10:00N 35°19' E 139°43'714.1
2017-Dec-01 09:31N 35°26' E 139°45'918.3
2017-Dec-01 09:01N 35°31' E 139°55'917.1
2017-Dec-01 08:30N 35°35' E 140°04'2 4.2
2017-Dec-01 08:00N 35°36' E 140°06'0 0.0
2017-Dec-01 07:30N 35°36' E 140°06'0 0.0
2017-Dec-01 07:00N 35°36' E 140°06'0 0.0
2017-Dec-01 06:30N 35°36' E 140°06'0 0.0
2017-Dec-01 06:00N 35°36' E 140°06'0 0.0
2017-Dec-01 05:30N 35°36' E 140°06'1 1.7
2017-Dec-01 05:00N 35°36' E 140°05'1 0.9
2017-Dec-01 04:26N 35°37' E 140°05'0 0.0
2017-Dec-01 03:59N 35°37' E 140°05'0 0.0
2017-Dec-01 03:29N 35°37' E 140°05'0 0.0
2017-Dec-01 02:59N 35°37' E 140°05'0 0.0
2017-Dec-01 02:29N 35°37' E 140°05'0 0.0
2017-Dec-01 01:59N 35°37' E 140°05'  

Dump ship's entire track history